Scilly, United Kingdom
Current Conditions -  °F | °C
As of 12:50 AM on Monday 24 Nov 2014 (Local Time) from EGDR Reporting Station
Clear Clear  
Wind Chill: 31°   Ceiling: Unl
Heat Index: 36°   Visibility: 6mi
Dew Point: 32°   Wind: 6mph
Humidity: 87%   Direction: 50°NE
Pressure: 30.24"   Gusts: NA
Location:  49.93°N, 6.31°W
Report Text: EGDR 240050Z 05005KT CAVOK 02/00 Q1024 BLU
Loading
Personal Weather Stations






























Interactive Weather Map New forecast layout! Learn more

10-Day Weather Forecast

Advertisements
Track Severe Weather on mobile